PWSweather.com
Personal Weather Stations
Station Observations
KCARIDGE3
Ridgecrest, CA 93555

Ridgecrest, CA 93555

Lat: 35.62083817, Lon: -117.6733017

Elevation: 2315

Station Type:

High Low Average
Temperature 86.7°F30.4°C 55.2°F12.9°C 73.1°F22.8°C
Dew Point 35.4°F1.9°C 25.3°F-3.7°C 30.8°F-0.7°C
Winds 13.0 mph 20.9 kmh Calm Calm 4.0 mph SSE6.4 kmh SSE
Wind Gusts 16.1 mph25.9 kmh -- 4.0 mph6.4 kmh
Humidity 44% 11% 23%
Pressure -338605.1 mb -338605.1 mb -
Precipitation 0.00 in0.0 mm - -
Hour Temp Dew Point Humidity Winds Wind Gusts Pressure Precip Precip Rate Daily Precip Total
12:02 AM 64.4°F18.0°C 33.1°F0.6°C 31% Calm Calm -- -338605.1 mb - 0.00 in0.0 mm 0.00 in0.0 mm
12:07 AM 64.0°F17.8°C 32.7°F0.4°C 31% 0.9 mph NNE1.4 kmh NNE 4.9 mph7.9 kmh -338605.1 mb - 0.00 in0.0 mm 0.00 in0.0 mm
12:12 AM 63.9°F17.7°C 32.7°F0.4°C 31% 2.9 mph NNW4.7 kmh NNW 4.9 mph7.9 kmh -338605.1 mb - 0.00 in0.0 mm 0.00 in0.0 mm
12:17 AM 63.9°F17.7°C 32.7°F0.4°C 31% 4.9 mph NNW7.9 kmh NNW 0.9 mph1.4 kmh -338605.1 mb - 0.00 in0.0 mm 0.00 in0.0 mm
12:22 AM 64.0°F17.8°C 32.7°F0.4°C 31% 2.0 mph NNW3.2 kmh NNW -- -338605.1 mb - 0.00 in0.0 mm 0.00 in0.0 mm
12:27 AM 63.9°F17.7°C 32.7°F0.4°C 31% 0.9 mph NNW1.4 kmh NNW 4.0 mph6.4 kmh -338605.1 mb - 0.00 in0.0 mm 0.00 in0.0 mm
12:32 AM 63.3°F17.4°C 32.2°F0.1°C 31% 2.0 mph NW3.2 kmh NW 4.9 mph7.9 kmh -338605.1 mb - 0.00 in0.0 mm 0.00 in0.0 mm
12:37 AM 63.1°F17.3°C 32.0°F0.0°C 31% 4.0 mph NW6.4 kmh NW 4.0 mph6.4 kmh -338605.1 mb - 0.00 in0.0 mm 0.00 in0.0 mm
12:42 AM 63.1°F17.3°C 32.0°F0.0°C 31% 4.9 mph NW7.9 kmh NW 4.9 mph7.9 kmh -338605.1 mb - 0.00 in0.0 mm 0.00 in0.0 mm
12:47 AM 63.1°F17.3°C 32.0°F0.0°C 31% 4.9 mph WNW7.9 kmh WNW 6.0 mph9.7 kmh -338605.1 mb - 0.00 in0.0 mm 0.00 in0.0 mm
12:52 AM 63.0°F17.2°C 31.8°F-0.1°C 31% 6.0 mph WNW9.7 kmh WNW 4.9 mph7.9 kmh -338605.1 mb - 0.00 in0.0 mm 0.00 in0.0 mm
12:57 AM 63.0°F17.2°C 31.8°F-0.1°C 31% 6.0 mph WNW9.7 kmh WNW 4.9 mph7.9 kmh -338605.1 mb - 0.00 in0.0 mm 0.00 in0.0 mm
01:02 AM 63.0°F17.2°C 31.8°F-0.1°C 31% 4.9 mph WNW7.9 kmh WNW 4.0 mph6.4 kmh -338605.1 mb - 0.00 in0.0 mm 0.00 in0.0 mm
01:07 AM 63.1°F17.3°C 32.0°F0.0°C 31% 4.0 mph WNW6.4 kmh WNW 0.9 mph1.4 kmh -338605.1 mb - 0.00 in0.0 mm 0.00 in0.0 mm
01:12 AM 63.1°F17.3°C 32.7°F0.4°C 32% 2.9 mph WNW4.7 kmh WNW 0.9 mph1.4 kmh -338605.1 mb - 0.00 in0.0 mm 0.00 in0.0 mm
01:17 AM 63.0°F17.2°C 32.7°F0.4°C 32% 2.0 mph WNW3.2 kmh WNW 0.9 mph1.4 kmh -338605.1 mb - 0.00 in0.0 mm 0.00 in0.0 mm
01:22 AM 62.6°F17.0°C 32.4°F0.2°C 32% 0.9 mph WNW1.4 kmh WNW -- -338605.1 mb - 0.00 in0.0 mm 0.00 in0.0 mm
01:27 AM 62.4°F16.9°C 32.2°F0.1°C 32% 0.9 mph WNW1.4 kmh WNW 2.9 mph4.7 kmh -338605.1 mb - 0.00 in0.0 mm 0.00 in0.0 mm
01:32 AM 62.4°F16.9°C 32.2°F0.1°C 32% 2.0 mph WNW3.2 kmh WNW 4.0 mph6.4 kmh -338605.1 mb - 0.00 in0.0 mm 0.00 in0.0 mm
01:37 AM 62.2°F16.8°C 32.0°F0.0°C 32% 2.9 mph WNW4.7 kmh WNW 2.0 mph3.2 kmh -338605.1 mb - 0.00 in0.0 mm 0.00 in0.0 mm
01:42 AM 62.2°F16.8°C 32.0°F0.0°C 32% 2.0 mph WNW3.2 kmh WNW 0.9 mph1.4 kmh -338605.1 mb - 0.00 in0.0 mm 0.00 in0.0 mm
01:47 AM 61.9°F16.6°C 31.6°F-0.2°C 32% 0.9 mph WNW1.4 kmh WNW -- -338605.1 mb - 0.00 in0.0 mm 0.00 in0.0 mm
01:52 AM 61.9°F16.6°C 32.5°F0.3°C 33% 0.9 mph WNW1.4 kmh WNW 0.9 mph1.4 kmh -338605.1 mb - 0.00 in0.0 mm 0.00 in0.0 mm
01:57 AM 61.7°F16.5°C 32.4°F0.2°C 33% 0.9 mph WNW1.4 kmh WNW -- -338605.1 mb - 0.00 in0.0 mm 0.00 in0.0 mm
02:02 AM 61.5°F16.4°C 32.9°F0.5°C 34% Calm Calm -- -338605.1 mb - 0.00 in0.0 mm 0.00 in0.0 mm
02:07 AM 61.3°F16.3°C 32.7°F0.4°C 34% Calm Calm -- -338605.1 mb - 0.00 in0.0 mm 0.00 in0.0 mm
02:12 AM 61.0°F16.1°C 32.4°F0.2°C 34% Calm Calm -- -338605.1 mb - 0.00 in0.0 mm 0.00 in0.0 mm
02:17 AM 60.8°F16.0°C 32.9°F0.5°C 35% Calm Calm -- -338605.1 mb - 0.00 in0.0 mm 0.00 in0.0 mm
02:22 AM 60.6°F15.9°C 32.9°F0.5°C 35% Calm Calm -- -338605.1 mb - 0.00 in0.0 mm 0.00 in0.0 mm
02:27 AM 60.6°F15.9°C 32.9°F0.5°C 35% Calm Calm -- -338605.1 mb - 0.00 in0.0 mm 0.00 in0.0 mm
02:32 AM 60.4°F15.8°C 33.4°F0.8°C 36% Calm Calm 0.9 mph1.4 kmh -338605.1 mb - 0.00 in0.0 mm 0.00 in0.0 mm
02:37 AM 60.4°F15.8°C 33.4°F0.8°C 36% Calm Calm -- -338605.1 mb - 0.00 in0.0 mm 0.00 in0.0 mm
02:42 AM 60.3°F15.7°C 33.3°F0.7°C 36% Calm Calm -- -338605.1 mb - 0.00 in0.0 mm 0.00 in0.0 mm
02:47 AM 60.3°F15.7°C 32.5°F0.3°C 35% Calm Calm -- -338605.1 mb - 0.00 in0.0 mm 0.00 in0.0 mm
02:52 AM 60.3°F15.7°C 32.5°F0.3°C 35% Calm Calm 0.9 mph1.4 kmh -338605.1 mb - 0.00 in0.0 mm 0.00 in0.0 mm
02:57 AM 60.1°F15.6°C 32.4°F0.2°C 35% 0.9 mph WNW1.4 kmh WNW 0.9 mph1.4 kmh -338605.1 mb - 0.00 in0.0 mm 0.00 in0.0 mm
03:02 AM 59.7°F15.4°C 32.7°F0.4°C 36% 0.9 mph WNW1.4 kmh WNW 2.0 mph3.2 kmh -338605.1 mb - 0.00 in0.0 mm 0.00 in0.0 mm
03:07 AM 59.5°F15.3°C 31.8°F-0.1°C 35% 0.9 mph WNW1.4 kmh WNW 2.9 mph4.7 kmh -338605.1 mb - 0.00 in0.0 mm 0.00 in0.0 mm
03:12 AM 59.5°F15.3°C 32.5°F0.3°C 36% 2.0 mph W3.2 kmh W 2.9 mph4.7 kmh -338605.1 mb - 0.00 in0.0 mm 0.00 in0.0 mm
03:17 AM 59.5°F15.3°C 32.5°F0.3°C 36% 2.9 mph W4.7 kmh W 2.9 mph4.7 kmh -338605.1 mb - 0.00 in0.0 mm 0.00 in0.0 mm
03:22 AM 59.5°F15.3°C 32.5°F0.3°C 36% 2.9 mph W4.7 kmh W 4.0 mph6.4 kmh -338605.1 mb - 0.00 in0.0 mm 0.00 in0.0 mm
03:27 AM 59.4°F15.2°C 32.4°F0.2°C 36% 2.9 mph W4.7 kmh W 2.0 mph3.2 kmh -338605.1 mb - 0.00 in0.0 mm 0.00 in0.0 mm
03:32 AM 59.4°F15.2°C 33.1°F0.6°C 37% 2.0 mph W3.2 kmh W 0.9 mph1.4 kmh -338605.1 mb - 0.00 in0.0 mm 0.00 in0.0 mm
03:37 AM 59.0°F15.0°C 32.7°F0.4°C 37% 0.9 mph W1.4 kmh W 0.9 mph1.4 kmh -338605.1 mb - 0.00 in0.0 mm 0.00 in0.0 mm
03:42 AM 58.6°F14.8°C 32.4°F0.2°C 37% 0.9 mph W1.4 kmh W 2.9 mph4.7 kmh -338605.1 mb - 0.00 in0.0 mm 0.00 in0.0 mm
03:47 AM 58.6°F14.8°C 32.4°F0.2°C 37% 2.0 mph W3.2 kmh W 2.9 mph4.7 kmh -338605.1 mb - 0.00 in0.0 mm 0.00 in0.0 mm
03:52 AM 58.5°F14.7°C 32.9°F0.5°C 38% 2.9 mph W4.7 kmh W 2.9 mph4.7 kmh -338605.1 mb - 0.00 in0.0 mm 0.00 in0.0 mm
03:57 AM 58.5°F14.7°C 32.9°F0.5°C 38% 2.9 mph W4.7 kmh W 4.0 mph6.4 kmh -338605.1 mb - 0.00 in0.0 mm 0.00 in0.0 mm
04:02 AM 58.1°F14.5°C 32.0°F0.0°C 37% 2.9 mph W4.7 kmh W 2.9 mph4.7 kmh -338605.1 mb - 0.00 in0.0 mm 0.00 in0.0 mm
04:07 AM 57.9°F14.4°C 32.5°F0.3°C 38% 2.9 mph WSW4.7 kmh WSW 4.0 mph6.4 kmh -338605.1 mb - 0.00 in0.0 mm 0.00 in0.0 mm
04:12 AM 57.9°F14.4°C 32.5°F0.3°C 38% 2.9 mph WSW4.7 kmh WSW 2.9 mph4.7 kmh -338605.1 mb - 0.00 in0.0 mm 0.00 in0.0 mm
04:17 AM 57.6°F14.2°C 32.2°F0.1°C 38% 2.9 mph WSW4.7 kmh WSW 4.0 mph6.4 kmh -338605.1 mb - 0.00 in0.0 mm 0.00 in0.0 mm
04:22 AM 57.6°F14.2°C 32.2°F0.1°C 38% 4.0 mph WSW6.4 kmh WSW 2.9 mph4.7 kmh -338605.1 mb - 0.00 in0.0 mm 0.00 in0.0 mm
04:27 AM 57.7°F14.3°C 31.6°F-0.2°C 37% 4.0 mph WSW6.4 kmh WSW 2.9 mph4.7 kmh -338605.1 mb - 0.00 in0.0 mm 0.00 in0.0 mm
04:32 AM 57.6°F14.2°C 31.5°F-0.3°C 37% 2.9 mph WSW4.7 kmh WSW 2.9 mph4.7 kmh -338605.1 mb - 0.00 in0.0 mm 0.00 in0.0 mm
04:37 AM 57.2°F14.0°C 31.1°F-0.5°C 37% 4.0 mph WSW6.4 kmh WSW 4.0 mph6.4 kmh -338605.1 mb - 0.00 in0.0 mm 0.00 in0.0 mm
04:42 AM 56.8°F13.8°C 30.9°F-0.6°C 37% 4.0 mph WSW6.4 kmh WSW 4.0 mph6.4 kmh -338605.1 mb - 0.00 in0.0 mm 0.00 in0.0 mm
04:47 AM 56.7°F13.7°C 31.3°F-0.4°C 38% 4.0 mph WSW6.4 kmh WSW 2.9 mph4.7 kmh -338605.1 mb - 0.00 in0.0 mm 0.00 in0.0 mm
04:52 AM 56.8°F13.8°C 31.5°F-0.3°C 38% 2.9 mph WSW4.7 kmh WSW 2.9 mph4.7 kmh -338605.1 mb - 0.00 in0.0 mm 0.00 in0.0 mm
04:57 AM 56.7°F13.7°C 31.3°F-0.4°C 38% 2.9 mph WSW4.7 kmh WSW 4.0 mph6.4 kmh -338605.1 mb - 0.00 in0.0 mm 0.00 in0.0 mm
05:02 AM 56.7°F13.7°C 31.3°F-0.4°C 38% 2.9 mph WSW4.7 kmh WSW 0.9 mph1.4 kmh -338605.1 mb - 0.00 in0.0 mm 0.00 in0.0 mm
05:07 AM 56.7°F13.7°C 31.3°F-0.4°C 38% 2.9 mph WSW4.7 kmh WSW 0.9 mph1.4 kmh -338605.1 mb - 0.00 in0.0 mm 0.00 in0.0 mm
05:12 AM 56.7°F13.7°C 32.0°F0.0°C 39% 0.9 mph WSW1.4 kmh WSW -- -338605.1 mb - 0.00 in0.0 mm 0.00 in0.0 mm
05:17 AM 56.5°F13.6°C 31.8°F-0.1°C 39% 0.9 mph WSW1.4 kmh WSW -- -338605.1 mb - 0.00 in0.0 mm 0.00 in0.0 mm
05:22 AM 56.5°F13.6°C 32.4°F0.2°C 40% Calm Calm 2.0 mph3.2 kmh -338605.1 mb - 0.00 in0.0 mm 0.00 in0.0 mm
05:27 AM 56.3°F13.5°C 32.4°F0.2°C 40% 0.9 mph WSW1.4 kmh WSW 2.0 mph3.2 kmh -338605.1 mb - 0.00 in0.0 mm 0.00 in0.0 mm
05:32 AM 56.1°F13.4°C 32.7°F0.4°C 41% 2.0 mph WSW3.2 kmh WSW 2.0 mph3.2 kmh -338605.1 mb - 0.00 in0.0 mm 0.00 in0.0 mm
05:37 AM 56.1°F13.4°C 32.7°F0.4°C 41% 0.9 mph WSW1.4 kmh WSW -- -338605.1 mb - 0.00 in0.0 mm 0.00 in0.0 mm
05:42 AM 55.9°F13.3°C 32.5°F0.3°C 41% Calm Calm -- -338605.1 mb - 0.00 in0.0 mm 0.00 in0.0 mm
05:47 AM 55.8°F13.2°C 33.1°F0.6°C 42% 0.9 mph WSW1.4 kmh WSW 2.0 mph3.2 kmh -338605.1 mb - 0.00 in0.0 mm 0.00 in0.0 mm
05:52 AM 55.8°F13.2°C 33.1°F0.6°C 42% 0.9 mph WSW1.4 kmh WSW 0.9 mph1.4 kmh -338605.1 mb - 0.00 in0.0 mm 0.00 in0.0 mm
05:57 AM 55.6°F13.1°C 32.9°F0.5°C 42% 2.0 mph WSW3.2 kmh WSW -- -338605.1 mb - 0.00 in0.0 mm 0.00 in0.0 mm
06:02 AM 55.4°F13.0°C 33.3°F0.7°C 43% 2.0 mph WSW3.2 kmh WSW 2.0 mph3.2 kmh -338605.1 mb - 0.00 in0.0 mm 0.00 in0.0 mm
06:07 AM 55.2°F12.9°C 33.6°F0.9°C 44% 2.0 mph WSW3.2 kmh WSW -- -338605.1 mb - 0.00 in0.0 mm 0.00 in0.0 mm
06:12 AM 55.6°F13.1°C 33.4°F0.8°C 43% 0.9 mph WSW1.4 kmh WSW -- -338605.1 mb - 0.00 in0.0 mm 0.00 in0.0 mm
06:17 AM 55.9°F13.3°C 33.3°F0.7°C 42% Calm Calm 2.0 mph3.2 kmh -338605.1 mb - 0.00 in0.0 mm 0.00 in0.0 mm
06:22 AM 55.8°F13.2°C 33.1°F0.6°C 42% 0.9 mph WSW1.4 kmh WSW 2.0 mph3.2 kmh -338605.1 mb - 0.00 in0.0 mm 0.00 in0.0 mm
06:27 AM 55.9°F13.3°C 32.5°F0.3°C 41% 0.9 mph WSW1.4 kmh WSW 2.0 mph3.2 kmh -338605.1 mb - 0.00 in0.0 mm 0.00 in0.0 mm
06:32 AM 56.5°F13.6°C 33.1°F0.6°C 41% 0.9 mph WSW1.4 kmh WSW 0.9 mph1.4 kmh -338605.1 mb - 0.00 in0.0 mm 0.00 in0.0 mm
06:37 AM 56.7°F13.7°C 32.5°F0.3°C 40% 0.9 mph WSW1.4 kmh WSW 2.0 mph3.2 kmh -338605.1 mb - 0.00 in0.0 mm 0.00 in0.0 mm
06:42 AM 57.0°F13.9°C 32.9°F0.5°C 40% 0.9 mph WSW1.4 kmh WSW 0.9 mph1.4 kmh -338605.1 mb - 0.00 in0.0 mm 0.00 in0.0 mm
06:47 AM 57.9°F14.4°C 33.1°F0.6°C 39% 0.9 mph WSW1.4 kmh WSW 0.9 mph1.4 kmh -338605.1 mb - 0.00 in0.0 mm 0.00 in0.0 mm
06:52 AM 58.3°F14.6°C 33.4°F0.8°C 39% 0.9 mph WSW1.4 kmh WSW 0.9 mph1.4 kmh -338605.1 mb - 0.00 in0.0 mm 0.00 in0.0 mm
06:57 AM 58.5°F14.7°C 33.6°F0.9°C 39% 0.9 mph WSW1.4 kmh WSW -- -338605.1 mb - 0.00 in0.0 mm 0.00 in0.0 mm
07:02 AM 59.2°F15.1°C 33.6°F0.9°C 38% Calm Calm -- -338605.1 mb - 0.00 in0.0 mm 0.00 in0.0 mm
07:07 AM 59.5°F15.3°C 34.0°F1.1°C 38% Calm Calm 0.9 mph1.4 kmh -338605.1 mb - 0.00 in0.0 mm 0.00 in0.0 mm
07:12 AM 60.1°F15.6°C 33.8°F1.0°C 37% 0.9 mph WSW1.4 kmh WSW 0.9 mph1.4 kmh -338605.1 mb - 0.00 in0.0 mm 0.00 in0.0 mm
07:17 AM 60.4°F15.8°C 34.0°F1.1°C 37% 0.9 mph WSW1.4 kmh WSW -- -338605.1 mb - 0.00 in0.0 mm 0.00 in0.0 mm
07:22 AM 61.3°F16.3°C 34.2°F1.2°C 36% 0.9 mph WSW1.4 kmh WSW -- -338605.1 mb - 0.00 in0.0 mm 0.00 in0.0 mm
07:27 AM 62.2°F16.8°C 34.2°F1.2°C 35% Calm Calm -- -338605.1 mb - 0.00 in0.0 mm 0.00 in0.0 mm
07:32 AM 63.0°F17.2°C 34.9°F1.6°C 35% Calm Calm 0.9 mph1.4 kmh -338605.1 mb - 0.00 in0.0 mm 0.00 in0.0 mm
07:37 AM 63.7°F17.6°C 34.7°F1.5°C 34% Calm Calm -- -338605.1 mb - 0.00 in0.0 mm 0.00 in0.0 mm
07:42 AM 64.4°F18.0°C 34.7°F1.5°C 33% 0.9 mph WSW1.4 kmh WSW 0.9 mph1.4 kmh -338605.1 mb - 0.00 in0.0 mm 0.00 in0.0 mm
07:47 AM 65.5°F18.6°C 34.9°F1.6°C 32% 0.9 mph WSW1.4 kmh WSW 4.0 mph6.4 kmh -338605.1 mb - 0.00 in0.0 mm 0.00 in0.0 mm
07:52 AM 65.7°F18.7°C 34.2°F1.2°C 31% 2.9 mph WSW4.7 kmh WSW 2.9 mph4.7 kmh -338605.1 mb - 0.00 in0.0 mm 0.00 in0.0 mm
07:57 AM 66.0°F18.9°C 34.5°F1.4°C 31% 2.9 mph WSW4.7 kmh WSW 4.9 mph7.9 kmh -338605.1 mb - 0.00 in0.0 mm 0.00 in0.0 mm
08:02 AM 66.6°F19.2°C 34.2°F1.2°C 30% 2.9 mph WSW4.7 kmh WSW 2.9 mph4.7 kmh -338605.1 mb - 0.00 in0.0 mm 0.00 in0.0 mm
08:07 AM 66.7°F19.3°C 33.4°F0.8°C 29% 2.9 mph WSW4.7 kmh WSW 2.0 mph3.2 kmh -338605.1 mb - 0.00 in0.0 mm 0.00 in0.0 mm
08:12 AM 66.9°F19.4°C 33.6°F0.9°C 29% 2.0 mph WSW3.2 kmh WSW -- -338605.1 mb - 0.00 in0.0 mm 0.00 in0.0 mm
08:17 AM 67.5°F19.7°C 33.3°F0.7°C 28% 0.9 mph WSW1.4 kmh WSW 0.9 mph1.4 kmh -338605.1 mb - 0.00 in0.0 mm 0.00 in0.0 mm
08:22 AM 68.2°F20.1°C 33.8°F1.0°C 28% 0.9 mph WSW1.4 kmh WSW 2.0 mph3.2 kmh -338605.1 mb - 0.00 in0.0 mm 0.00 in0.0 mm
08:27 AM 68.9°F20.5°C 34.5°F1.4°C 28% 2.0 mph WSW3.2 kmh WSW 2.0 mph3.2 kmh -338605.1 mb - 0.00 in0.0 mm 0.00 in0.0 mm
08:32 AM 69.4°F20.8°C 33.1°F0.6°C 26% 2.0 mph WSW3.2 kmh WSW -- -338605.1 mb - 0.00 in0.0 mm 0.00 in0.0 mm
08:37 AM 70.0°F21.1°C 35.4°F1.9°C 28% 2.0 mph WSW3.2 kmh WSW 0.9 mph1.4 kmh -338605.1 mb - 0.00 in0.0 mm 0.00 in0.0 mm
08:42 AM 70.5°F21.4°C 34.0°F1.1°C 26% 0.9 mph WSW1.4 kmh WSW 0.9 mph1.4 kmh -338605.1 mb - 0.00 in0.0 mm 0.00 in0.0 mm
08:47 AM 70.9°F21.6°C 33.3°F0.7°C 25% 0.9 mph WSW1.4 kmh WSW 0.9 mph1.4 kmh -338605.1 mb - 0.00 in0.0 mm 0.00 in0.0 mm
08:52 AM 70.9°F21.6°C 33.3°F0.7°C 25% 0.9 mph WSW1.4 kmh WSW -- -338605.1 mb - 0.00 in0.0 mm 0.00 in0.0 mm
08:57 AM 71.2°F21.8°C 33.6°F0.9°C 25% 0.9 mph WSW1.4 kmh WSW 2.0 mph3.2 kmh -338605.1 mb - 0.00 in0.0 mm 0.00 in0.0 mm
09:02 AM 72.0°F22.2°C 34.2°F1.2°C 25% 0.9 mph WSW1.4 kmh WSW -- -338605.1 mb - 0.00 in0.0 mm 0.00 in0.0 mm
09:07 AM 73.0°F22.8°C 34.2°F1.2°C 24% Calm Calm 0.9 mph1.4 kmh -338605.1 mb - 0.00 in0.0 mm 0.00 in0.0 mm
09:12 AM 73.0°F22.8°C 34.2°F1.2°C 24% Calm Calm 0.9 mph1.4 kmh -338605.1 mb - 0.00 in0.0 mm 0.00 in0.0 mm
09:17 AM 72.9°F22.7°C 34.0°F1.1°C 24% 0.9 mph WSW1.4 kmh WSW -- -338605.1 mb - 0.00 in0.0 mm 0.00 in0.0 mm
09:22 AM 73.6°F23.1°C 33.4°F0.8°C 23% Calm Calm -- -338605.1 mb - 0.00 in0.0 mm 0.00 in0.0 mm
09:27 AM 73.9°F23.3°C 33.8°F1.0°C 23% Calm Calm 0.9 mph1.4 kmh -338605.1 mb - 0.00 in0.0 mm 0.00 in0.0 mm
09:32 AM 73.9°F23.3°C 33.8°F1.0°C 23% Calm Calm 0.9 mph1.4 kmh -338605.1 mb - 0.00 in0.0 mm 0.00 in0.0 mm
09:37 AM 75.0°F23.9°C 33.6°F0.9°C 22% 0.9 mph WSW1.4 kmh WSW -- -338605.1 mb - 0.00 in0.0 mm 0.00 in0.0 mm
09:42 AM 75.4°F24.1°C 34.0°F1.1°C 22% 0.9 mph SSW1.4 kmh SSW 2.9 mph4.7 kmh -338605.1 mb - 0.00 in0.0 mm 0.00 in0.0 mm
09:47 AM 76.6°F24.8°C 33.8°F1.0°C 21% 2.0 mph ESE3.2 kmh ESE 2.9 mph4.7 kmh -338605.1 mb - 0.00 in0.0 mm 0.00 in0.0 mm
09:52 AM 77.7°F25.4°C 33.4°F0.8°C 20% 4.0 mph E6.4 kmh E 4.9 mph7.9 kmh -338605.1 mb - 0.00 in0.0 mm 0.00 in0.0 mm
09:57 AM 78.3°F25.7°C 34.0°F1.1°C 20% 4.0 mph ENE6.4 kmh ENE 4.9 mph7.9 kmh -338605.1 mb - 0.00 in0.0 mm 0.00 in0.0 mm
10:02 AM 78.4°F25.8°C 32.7°F0.4°C 19% 4.0 mph E6.4 kmh E 0.9 mph1.4 kmh -338605.1 mb - 0.00 in0.0 mm 0.00 in0.0 mm
10:07 AM 78.4°F25.8°C 34.0°F1.1°C 20% 4.0 mph ENE6.4 kmh ENE 2.0 mph3.2 kmh -338605.1 mb - 0.00 in0.0 mm 0.00 in0.0 mm
10:12 AM 79.0°F26.1°C 34.5°F1.4°C 20% 2.9 mph ENE4.7 kmh ENE 4.0 mph6.4 kmh -338605.1 mb - 0.00 in0.0 mm 0.00 in0.0 mm
10:17 AM 79.3°F26.3°C 33.4°F0.8°C 19% 2.9 mph NE4.7 kmh NE 2.0 mph3.2 kmh -338605.1 mb - 0.00 in0.0 mm 0.00 in0.0 mm
10:22 AM 80.1°F26.7°C 34.2°F1.2°C 19% 2.9 mph NE4.7 kmh NE 6.9 mph11.1 kmh -338605.1 mb - 0.00 in0.0 mm 0.00 in0.0 mm
10:27 AM 80.1°F26.7°C 32.7°F0.4°C 18% 4.9 mph NE7.9 kmh NE 6.9 mph11.1 kmh -338605.1 mb - 0.00 in0.0 mm 0.00 in0.0 mm
10:32 AM 80.4°F26.9°C 33.1°F0.6°C 18% 8.1 mph ENE13.0 kmh ENE 6.9 mph11.1 kmh -338605.1 mb - 0.00 in0.0 mm 0.00 in0.0 mm
10:37 AM 81.1°F27.3°C 35.1°F1.7°C 19% 8.1 mph E13.0 kmh E 14.1 mph22.7 kmh -338605.1 mb - 0.00 in0.0 mm 0.00 in0.0 mm
10:42 AM 81.1°F27.3°C 33.6°F0.9°C 18% 8.9 mph E14.3 kmh E 12.1 mph19.5 kmh -338605.1 mb - 0.00 in0.0 mm 0.00 in0.0 mm
10:47 AM 81.0°F27.2°C 33.4°F0.8°C 18% 11.0 mph ENE17.7 kmh ENE 12.1 mph19.5 kmh -338605.1 mb - 0.00 in0.0 mm 0.00 in0.0 mm
10:52 AM 81.0°F27.2°C 34.9°F1.6°C 19% 11.0 mph ESE17.7 kmh ESE 12.1 mph19.5 kmh -338605.1 mb - 0.00 in0.0 mm 0.00 in0.0 mm
10:57 AM 81.1°F27.3°C 35.1°F1.7°C 19% 10.1 mph E16.3 kmh E 11.0 mph17.7 kmh -338605.1 mb - 0.00 in0.0 mm 0.00 in0.0 mm
11:02 AM 81.9°F27.7°C 34.2°F1.2°C 18% 11.0 mph E17.7 kmh E 14.1 mph22.7 kmh -338605.1 mb - 0.00 in0.0 mm 0.00 in0.0 mm
11:07 AM 82.2°F27.9°C 33.1°F0.6°C 17% 12.1 mph E19.5 kmh E 11.0 mph17.7 kmh -338605.1 mb - 0.00 in0.0 mm 0.00 in0.0 mm
11:12 AM 82.6°F28.1°C 33.4°F0.8°C 17% 11.0 mph E17.7 kmh E 15.0 mph24.1 kmh -338605.1 mb - 0.00 in0.0 mm 0.00 in0.0 mm
11:17 AM 82.0°F27.8°C 32.9°F0.5°C 17% 12.1 mph E19.5 kmh E 13.0 mph20.9 kmh -338605.1 mb - 0.00 in0.0 mm 0.00 in0.0 mm
11:22 AM 81.7°F27.6°C 32.5°F0.3°C 17% 13.0 mph ENE20.9 kmh ENE 6.9 mph11.1 kmh -338605.1 mb - 0.00 in0.0 mm 0.00 in0.0 mm
11:27 AM 81.5°F27.5°C 32.5°F0.3°C 17% 13.0 mph NE20.9 kmh NE 10.1 mph16.3 kmh -338605.1 mb - 0.00 in0.0 mm 0.00 in0.0 mm
11:32 AM 81.3°F27.4°C 32.4°F0.2°C 17% 11.0 mph ENE17.7 kmh ENE 10.1 mph16.3 kmh -338605.1 mb - 0.00 in0.0 mm 0.00 in0.0 mm
11:37 AM 82.0°F27.8°C 32.9°F0.5°C 17% 10.1 mph NE16.3 kmh NE 8.9 mph14.3 kmh -338605.1 mb - 0.00 in0.0 mm 0.00 in0.0 mm
11:42 AM 82.2°F27.9°C 33.1°F0.6°C 17% 11.0 mph NE17.7 kmh NE 13.0 mph20.9 kmh -338605.1 mb - 0.00 in0.0 mm 0.00 in0.0 mm
11:47 AM 82.0°F27.8°C 32.9°F0.5°C 17% 11.0 mph ENE17.7 kmh ENE 10.1 mph16.3 kmh -338605.1 mb - 0.00 in0.0 mm 0.00 in0.0 mm
11:52 AM 82.6°F28.1°C 31.8°F-0.1°C 16% 12.1 mph ESE19.5 kmh ESE 10.1 mph16.3 kmh -338605.1 mb - 0.00 in0.0 mm 0.00 in0.0 mm
11:57 AM 82.8°F28.2°C 32.0°F0.0°C 16% 11.0 mph ENE17.7 kmh ENE 16.1 mph25.9 kmh -338605.1 mb - 0.00 in0.0 mm 0.00 in0.0 mm
12:02 PM 82.9°F28.3°C 32.2°F0.1°C 16% 10.1 mph E16.3 kmh E 8.9 mph14.3 kmh -338605.1 mb - 0.00 in0.0 mm 0.00 in0.0 mm
12:07 PM 83.1°F28.4°C 30.7°F-0.7°C 15% 11.0 mph E17.7 kmh E 15.0 mph24.1 kmh -338605.1 mb - 0.00 in0.0 mm 0.00 in0.0 mm
12:12 PM 82.6°F28.1°C 31.8°F-0.1°C 16% 11.0 mph E17.7 kmh E 15.0 mph24.1 kmh -338605.1 mb - 0.00 in0.0 mm 0.00 in0.0 mm
12:17 PM 82.6°F28.1°C 30.2°F-1.0°C 15% 11.0 mph ENE17.7 kmh ENE 4.9 mph7.9 kmh -338605.1 mb - 0.00 in0.0 mm 0.00 in0.0 mm
12:22 PM 83.1°F28.4°C 30.7°F-0.7°C 15% 8.9 mph NE14.3 kmh NE 15.0 mph24.1 kmh -338605.1 mb - 0.00 in0.0 mm 0.00 in0.0 mm
12:27 PM 83.8°F28.8°C 32.9°F0.5°C 16% 8.9 mph E14.3 kmh E 15.0 mph24.1 kmh -338605.1 mb - 0.00 in0.0 mm 0.00 in0.0 mm
12:32 PM 83.8°F28.8°C 32.9°F0.5°C 16% 10.1 mph E16.3 kmh E 8.1 mph13.0 kmh -338605.1 mb - 0.00 in0.0 mm 0.00 in0.0 mm
12:37 PM 84.0°F28.9°C 33.1°F0.6°C 16% 10.1 mph ENE16.3 kmh ENE 16.1 mph25.9 kmh -338605.1 mb - 0.00 in0.0 mm 0.00 in0.0 mm
12:42 PM 83.5°F28.6°C 30.9°F-0.6°C 15% 11.0 mph NE17.7 kmh NE 8.9 mph14.3 kmh -338605.1 mb - 0.00 in0.0 mm 0.00 in0.0 mm
12:47 PM 82.9°F28.3°C 32.2°F0.1°C 16% 11.0 mph E17.7 kmh E 14.1 mph22.7 kmh -338605.1 mb - 0.00 in0.0 mm 0.00 in0.0 mm
12:52 PM 83.5°F28.6°C 32.5°F0.3°C 16% 10.1 mph SE16.3 kmh SE 8.1 mph13.0 kmh -338605.1 mb - 0.00 in0.0 mm 0.00 in0.0 mm
12:57 PM 84.0°F28.9°C 33.1°F0.6°C 16% 8.9 mph ESE14.3 kmh ESE 8.9 mph14.3 kmh -338605.1 mb - 0.00 in0.0 mm 0.00 in0.0 mm
01:02 PM 84.6°F29.2°C 31.8°F-0.1°C 15% 6.9 mph NE11.1 kmh NE 6.0 mph9.7 kmh -338605.1 mb - 0.00 in0.0 mm 0.00 in0.0 mm
01:07 PM 84.6°F29.2°C 31.8°F-0.1°C 15% 6.0 mph E9.7 kmh E 10.1 mph16.3 kmh -338605.1 mb - 0.00 in0.0 mm 0.00 in0.0 mm
01:12 PM 84.7°F29.3°C 30.2°F-1.0°C 14% 8.9 mph E14.3 kmh E 2.9 mph4.7 kmh -338605.1 mb - 0.00 in0.0 mm 0.00 in0.0 mm
01:17 PM 84.6°F29.2°C 30.2°F-1.0°C 14% 8.1 mph NE13.0 kmh NE 4.9 mph7.9 kmh -338605.1 mb - 0.00 in0.0 mm 0.00 in0.0 mm
01:22 PM 84.6°F29.2°C 31.8°F-0.1°C 15% 4.9 mph NE7.9 kmh NE 0.9 mph1.4 kmh -338605.1 mb - 0.00 in0.0 mm 0.00 in0.0 mm
01:27 PM 84.7°F29.3°C 32.0°F0.0°C 15% 6.0 mph ESE9.7 kmh ESE 4.9 mph7.9 kmh -338605.1 mb - 0.00 in0.0 mm 0.00 in0.0 mm
01:32 PM 85.3°F29.6°C 32.4°F0.2°C 15% 4.9 mph NE7.9 kmh NE 8.1 mph13.0 kmh -338605.1 mb - 0.00 in0.0 mm 0.00 in0.0 mm
01:37 PM 84.9°F29.4°C 30.4°F-0.9°C 14% 6.0 mph N9.7 kmh N 4.9 mph7.9 kmh -338605.1 mb - 0.00 in0.0 mm 0.00 in0.0 mm
01:42 PM 85.1°F29.5°C 30.6°F-0.8°C 14% 6.9 mph NE11.1 kmh NE 4.9 mph7.9 kmh -338605.1 mb - 0.00 in0.0 mm 0.00 in0.0 mm
01:47 PM 84.7°F29.3°C 30.2°F-1.0°C 14% 6.9 mph NE11.1 kmh NE 6.0 mph9.7 kmh -338605.1 mb - 0.00 in0.0 mm 0.00 in0.0 mm
01:52 PM 84.4°F29.1°C 30.0°F-1.1°C 14% 10.1 mph E16.3 kmh E 14.1 mph22.7 kmh -338605.1 mb - 0.00 in0.0 mm 0.00 in0.0 mm
01:57 PM 85.3°F29.6°C 30.7°F-0.7°C 14% 11.0 mph ESE17.7 kmh ESE 6.9 mph11.1 kmh -338605.1 mb - 0.00 in0.0 mm 0.00 in0.0 mm
02:02 PM 85.8°F29.9°C 29.3°F-1.5°C 13% 11.0 mph ENE17.7 kmh ENE 10.1 mph16.3 kmh -338605.1 mb - 0.00 in0.0 mm 0.00 in0.0 mm
02:07 PM 86.0°F30.0°C 29.5°F-1.4°C 13% 8.9 mph NE14.3 kmh NE 13.0 mph20.9 kmh -338605.1 mb - 0.00 in0.0 mm 0.00 in0.0 mm
02:12 PM 85.3°F29.6°C 28.9°F-1.7°C 13% 8.9 mph NE14.3 kmh NE 4.0 mph6.4 kmh -338605.1 mb - 0.00 in0.0 mm 0.00 in0.0 mm
02:17 PM 84.9°F29.4°C 30.4°F-0.9°C 14% 6.0 mph ENE9.7 kmh ENE 2.0 mph3.2 kmh -338605.1 mb - 0.00 in0.0 mm 0.00 in0.0 mm
02:22 PM 84.9°F29.4°C 30.4°F-0.9°C 14% 6.9 mph NE11.1 kmh NE 4.9 mph7.9 kmh -338605.1 mb - 0.00 in0.0 mm 0.00 in0.0 mm
02:27 PM 85.3°F29.6°C 30.7°F-0.7°C 14% 8.9 mph ENE14.3 kmh ENE 10.1 mph16.3 kmh -338605.1 mb - 0.00 in0.0 mm 0.00 in0.0 mm
02:32 PM 85.3°F29.6°C 30.7°F-0.7°C 14% 8.1 mph E13.0 kmh E 8.9 mph14.3 kmh -338605.1 mb - 0.00 in0.0 mm 0.00 in0.0 mm
02:37 PM 85.6°F29.8°C 30.9°F-0.6°C 14% 8.1 mph ENE13.0 kmh ENE 4.9 mph7.9 kmh -338605.1 mb - 0.00 in0.0 mm 0.00 in0.0 mm
02:42 PM 85.5°F29.7°C 30.9°F-0.6°C 14% 8.9 mph E14.3 kmh E 11.0 mph17.7 kmh -338605.1 mb - 0.00 in0.0 mm 0.00 in0.0 mm
02:47 PM 85.6°F29.8°C 30.9°F-0.6°C 14% 8.1 mph NNE13.0 kmh NNE 0.9 mph1.4 kmh -338605.1 mb - 0.00 in0.0 mm 0.00 in0.0 mm
02:52 PM 85.5°F29.7°C 30.9°F-0.6°C 14% 6.0 mph NNE9.7 kmh NNE 6.9 mph11.1 kmh -338605.1 mb - 0.00 in0.0 mm 0.00 in0.0 mm
02:57 PM 85.5°F29.7°C 30.9°F-0.6°C 14% 6.0 mph ENE9.7 kmh ENE 6.9 mph11.1 kmh -338605.1 mb - 0.00 in0.0 mm 0.00 in0.0 mm
03:02 PM 85.5°F29.7°C 30.9°F-0.6°C 14% 4.9 mph E7.9 kmh E 0.9 mph1.4 kmh -338605.1 mb - 0.00 in0.0 mm 0.00 in0.0 mm
03:07 PM 85.8°F29.9°C 29.3°F-1.5°C 13% 8.1 mph NE13.0 kmh NE 8.1 mph13.0 kmh -338605.1 mb - 0.00 in0.0 mm 0.00 in0.0 mm
03:12 PM 85.8°F29.9°C 29.3°F-1.5°C 13% 11.0 mph NNE17.7 kmh NNE 13.0 mph20.9 kmh -338605.1 mb - 0.00 in0.0 mm 0.00 in0.0 mm
03:17 PM 85.6°F29.8°C 27.1°F-2.7°C 12% 11.0 mph ESE17.7 kmh ESE 14.1 mph22.7 kmh -338605.1 mb - 0.00 in0.0 mm 0.00 in0.0 mm
03:22 PM 85.8°F29.9°C 27.3°F-2.6°C 12% 8.9 mph SE14.3 kmh SE 14.1 mph22.7 kmh -338605.1 mb - 0.00 in0.0 mm 0.00 in0.0 mm
03:27 PM 86.0°F30.0°C 25.3°F-3.7°C 11% 8.1 mph SE13.0 kmh SE 6.0 mph9.7 kmh -338605.1 mb - 0.00 in0.0 mm 0.00 in0.0 mm
03:32 PM 86.0°F30.0°C 27.5°F-2.5°C 12% 6.9 mph ENE11.1 kmh ENE 8.1 mph13.0 kmh -338605.1 mb - 0.00 in0.0 mm 0.00 in0.0 mm
03:37 PM 86.5°F30.3°C 27.9°F-2.3°C 12% 8.1 mph ESE13.0 kmh ESE 4.9 mph7.9 kmh -338605.1 mb - 0.00 in0.0 mm 0.00 in0.0 mm
03:42 PM 86.5°F30.3°C 27.9°F-2.3°C 12% 6.9 mph ESE11.1 kmh ESE 2.0 mph3.2 kmh -338605.1 mb - 0.00 in0.0 mm 0.00 in0.0 mm
03:47 PM 86.7°F30.4°C 25.9°F-3.4°C 11% 4.0 mph E6.4 kmh E 11.0 mph17.7 kmh -338605.1 mb - 0.00 in0.0 mm 0.00 in0.0 mm
03:52 PM 86.7°F30.4°C 25.9°F-3.4°C 11% 6.9 mph E11.1 kmh E 13.0 mph20.9 kmh -338605.1 mb - 0.00 in0.0 mm 0.00 in0.0 mm
03:57 PM 86.5°F30.3°C 25.9°F-3.4°C 11% 6.9 mph ENE11.1 kmh ENE 0.9 mph1.4 kmh -338605.1 mb - 0.00 in0.0 mm 0.00 in0.0 mm
04:02 PM 86.2°F30.1°C 27.7°F-2.4°C 12% 4.9 mph ESE7.9 kmh ESE -- -338605.1 mb - 0.00 in0.0 mm 0.00 in0.0 mm
04:07 PM 85.8°F29.9°C 27.3°F-2.6°C 12% 4.0 mph NE6.4 kmh NE 2.9 mph4.7 kmh -338605.1 mb - 0.00 in0.0 mm 0.00 in0.0 mm
04:12 PM 86.0°F30.0°C 27.5°F-2.5°C 12% 4.9 mph E7.9 kmh E 8.9 mph14.3 kmh -338605.1 mb - 0.00 in0.0 mm 0.00 in0.0 mm
04:17 PM 86.2°F30.1°C 27.7°F-2.4°C 12% 4.9 mph E7.9 kmh E 0.9 mph1.4 kmh -338605.1 mb - 0.00 in0.0 mm 0.00 in0.0 mm
04:22 PM 86.2°F30.1°C 27.7°F-2.4°C 12% 2.9 mph ENE4.7 kmh ENE 2.0 mph3.2 kmh -338605.1 mb - 0.00 in0.0 mm 0.00 in0.0 mm
04:27 PM 85.8°F29.9°C 27.3°F-2.6°C 12% 2.9 mph ENE4.7 kmh ENE 4.0 mph6.4 kmh -338605.1 mb - 0.00 in0.0 mm 0.00 in0.0 mm
04:32 PM 86.0°F30.0°C 27.5°F-2.5°C 12% 4.9 mph E7.9 kmh E 2.9 mph4.7 kmh -338605.1 mb - 0.00 in0.0 mm 0.00 in0.0 mm
04:37 PM 86.0°F30.0°C 29.5°F-1.4°C 13% 6.9 mph NE11.1 kmh NE 6.0 mph9.7 kmh -338605.1 mb - 0.00 in0.0 mm 0.00 in0.0 mm
04:42 PM 85.8°F29.9°C 27.3°F-2.6°C 12% 6.0 mph ENE9.7 kmh ENE -- -338605.1 mb - 0.00 in0.0 mm 0.00 in0.0 mm
04:47 PM 85.5°F29.7°C 27.1°F-2.7°C 12% 4.0 mph NE6.4 kmh NE 4.0 mph6.4 kmh -338605.1 mb - 0.00 in0.0 mm 0.00 in0.0 mm
04:52 PM 85.3°F29.6°C 27.0°F-2.8°C 12% 2.9 mph NE4.7 kmh NE 4.0 mph6.4 kmh -338605.1 mb - 0.00 in0.0 mm 0.00 in0.0 mm
04:57 PM 85.5°F29.7°C 27.1°F-2.7°C 12% 4.9 mph E7.9 kmh E 13.0 mph20.9 kmh -338605.1 mb - 0.00 in0.0 mm 0.00 in0.0 mm
05:02 PM 85.6°F29.8°C 27.1°F-2.7°C 12% 8.1 mph ENE13.0 kmh ENE 4.9 mph7.9 kmh -338605.1 mb - 0.00 in0.0 mm 0.00 in0.0 mm
05:07 PM 85.5°F29.7°C 27.1°F-2.7°C 12% 8.1 mph E13.0 kmh E 6.0 mph9.7 kmh -338605.1 mb - 0.00 in0.0 mm 0.00 in0.0 mm
05:12 PM 85.6°F29.8°C 27.1°F-2.7°C 12% 6.9 mph NE11.1 kmh NE 8.9 mph14.3 kmh -338605.1 mb - 0.00 in0.0 mm 0.00 in0.0 mm
05:17 PM 85.6°F29.8°C 27.1°F-2.7°C 12% 6.9 mph ENE11.1 kmh ENE 8.1 mph13.0 kmh -338605.1 mb - 0.00 in0.0 mm 0.00 in0.0 mm
05:22 PM 85.3°F29.6°C 27.0°F-2.8°C 12% 6.0 mph NE9.7 kmh NE 4.9 mph7.9 kmh -338605.1 mb - 0.00 in0.0 mm 0.00 in0.0 mm
05:27 PM 85.1°F29.5°C 26.8°F-2.9°C 12% 4.9 mph NE7.9 kmh NE 4.9 mph7.9 kmh -338605.1 mb - 0.00 in0.0 mm 0.00 in0.0 mm
05:32 PM 84.9°F29.4°C 28.6°F-1.9°C 13% 4.0 mph E6.4 kmh E 0.9 mph1.4 kmh -338605.1 mb - 0.00 in0.0 mm 0.00 in0.0 mm
05:37 PM 84.6°F29.2°C 28.4°F-2.0°C 13% 2.9 mph E4.7 kmh E 2.0 mph3.2 kmh -338605.1 mb - 0.00 in0.0 mm 0.00 in0.0 mm
05:42 PM 84.6°F29.2°C 28.4°F-2.0°C 13% 4.0 mph ENE6.4 kmh ENE 8.1 mph13.0 kmh -338605.1 mb - 0.00 in0.0 mm 0.00 in0.0 mm
05:47 PM 84.4°F29.1°C 30.0°F-1.1°C 14% 6.0 mph E9.7 kmh E 10.1 mph16.3 kmh -338605.1 mb - 0.00 in0.0 mm 0.00 in0.0 mm
05:52 PM 83.8°F28.8°C 27.7°F-2.4°C 13% 8.1 mph E13.0 kmh E 6.9 mph11.1 kmh -338605.1 mb - 0.00 in0.0 mm 0.00 in0.0 mm
05:57 PM 83.8°F28.8°C 29.5°F-1.4°C 14% 6.9 mph E11.1 kmh E 2.9 mph4.7 kmh -338605.1 mb - 0.00 in0.0 mm 0.00 in0.0 mm
06:02 PM 83.8°F28.8°C 29.5°F-1.4°C 14% 6.0 mph NE9.7 kmh NE 8.1 mph13.0 kmh -338605.1 mb - 0.00 in0.0 mm 0.00 in0.0 mm
06:07 PM 83.8°F28.8°C 29.5°F-1.4°C 14% 6.0 mph E9.7 kmh E 8.1 mph13.0 kmh -338605.1 mb - 0.00 in0.0 mm 0.00 in0.0 mm
06:12 PM 83.8°F28.8°C 29.5°F-1.4°C 14% 6.9 mph E11.1 kmh E 8.9 mph14.3 kmh -338605.1 mb - 0.00 in0.0 mm 0.00 in0.0 mm
06:17 PM 83.5°F28.6°C 29.3°F-1.5°C 14% 8.1 mph E13.0 kmh E 10.1 mph16.3 kmh -338605.1 mb - 0.00 in0.0 mm 0.00 in0.0 mm
06:22 PM 82.9°F28.3°C 28.8°F-1.8°C 14% 10.1 mph E16.3 kmh E 8.1 mph13.0 kmh -338605.1 mb - 0.00 in0.0 mm 0.00 in0.0 mm
06:27 PM 82.9°F28.3°C 28.8°F-1.8°C 14% 10.1 mph ENE16.3 kmh ENE 8.9 mph14.3 kmh -338605.1 mb - 0.00 in0.0 mm 0.00 in0.0 mm
06:32 PM 82.9°F28.3°C 28.8°F-1.8°C 14% 8.9 mph ENE14.3 kmh ENE 8.1 mph13.0 kmh -338605.1 mb - 0.00 in0.0 mm 0.00 in0.0 mm
06:37 PM 82.8°F28.2°C 28.8°F-1.8°C 14% 8.1 mph ENE13.0 kmh ENE 15.0 mph24.1 kmh -338605.1 mb - 0.00 in0.0 mm 0.00 in0.0 mm
06:47 PM 82.4°F28.0°C 28.4°F-2.0°C 14% 11.0 mph ENE17.7 kmh ENE 8.1 mph13.0 kmh -338605.1 mb - 0.00 in0.0 mm 0.00 in0.0 mm
06:52 PM 82.2°F27.9°C 28.2°F-2.1°C 14% 8.1 mph ENE13.0 kmh ENE 8.1 mph13.0 kmh -338605.1 mb - 0.00 in0.0 mm 0.00 in0.0 mm
06:57 PM 82.0°F27.8°C 28.2°F-2.1°C 14% 6.9 mph E11.1 kmh E 10.1 mph16.3 kmh -338605.1 mb - 0.00 in0.0 mm 0.00 in0.0 mm
07:12 PM 81.3°F27.4°C 27.5°F-2.5°C 14% 6.9 mph E11.1 kmh E 8.9 mph14.3 kmh -338605.1 mb - 0.00 in0.0 mm 0.00 in0.0 mm
07:17 PM 81.1°F27.3°C 27.5°F-2.5°C 14% 6.9 mph E11.1 kmh E 8.9 mph14.3 kmh -338605.1 mb - 0.00 in0.0 mm 0.00 in0.0 mm
07:22 PM 81.0°F27.2°C 28.9°F-1.7°C 15% 8.1 mph E13.0 kmh E 6.9 mph11.1 kmh -338605.1 mb - 0.00 in0.0 mm 0.00 in0.0 mm
07:27 PM 80.8°F27.1°C 28.8°F-1.8°C 15% 6.9 mph E11.1 kmh E 8.9 mph14.3 kmh -338605.1 mb - 0.00 in0.0 mm 0.00 in0.0 mm
07:32 PM 80.6°F27.0°C 28.8°F-1.8°C 15% 8.1 mph E13.0 kmh E 8.1 mph13.0 kmh -338605.1 mb - 0.00 in0.0 mm 0.00 in0.0 mm
07:37 PM 80.2°F26.8°C 28.4°F-2.0°C 15% 8.1 mph E13.0 kmh E 6.9 mph11.1 kmh -338605.1 mb - 0.00 in0.0 mm 0.00 in0.0 mm
07:42 PM 80.2°F26.8°C 28.4°F-2.0°C 15% 6.9 mph E11.1 kmh E 6.0 mph9.7 kmh -338605.1 mb - 0.00 in0.0 mm 0.00 in0.0 mm
07:47 PM 79.9°F26.6°C 28.0°F-2.2°C 15% 6.0 mph E9.7 kmh E 4.9 mph7.9 kmh -338605.1 mb - 0.00 in0.0 mm 0.00 in0.0 mm
07:52 PM 79.7°F26.5°C 29.5°F-1.4°C 16% 6.0 mph E9.7 kmh E 6.9 mph11.1 kmh -338605.1 mb - 0.00 in0.0 mm 0.00 in0.0 mm
07:57 PM 79.5°F26.4°C 29.5°F-1.4°C 16% 6.0 mph E9.7 kmh E 4.9 mph7.9 kmh -338605.1 mb - 0.00 in0.0 mm 0.00 in0.0 mm
08:02 PM 79.3°F26.3°C 29.3°F-1.5°C 16% 6.0 mph E9.7 kmh E 6.9 mph11.1 kmh -338605.1 mb - 0.00 in0.0 mm 0.00 in0.0 mm
08:07 PM 79.3°F26.3°C 29.3°F-1.5°C 16% 4.9 mph ENE7.9 kmh ENE 6.9 mph11.1 kmh -338605.1 mb - 0.00 in0.0 mm 0.00 in0.0 mm
08:12 PM 79.0°F26.1°C 28.9°F-1.7°C 16% 6.0 mph ENE9.7 kmh ENE 4.0 mph6.4 kmh -338605.1 mb - 0.00 in0.0 mm 0.00 in0.0 mm
08:17 PM 78.6°F25.9°C 28.8°F-1.8°C 16% 6.0 mph ENE9.7 kmh ENE 2.9 mph4.7 kmh -338605.1 mb - 0.00 in0.0 mm 0.00 in0.0 mm
08:22 PM 78.3°F25.7°C 28.4°F-2.0°C 16% 4.0 mph ENE6.4 kmh ENE 2.9 mph4.7 kmh -338605.1 mb - 0.00 in0.0 mm 0.00 in0.0 mm
08:27 PM 78.1°F25.6°C 29.7°F-1.3°C 17% 4.0 mph E6.4 kmh E 4.0 mph6.4 kmh -338605.1 mb - 0.00 in0.0 mm 0.00 in0.0 mm
08:32 PM 77.7°F25.4°C 29.5°F-1.4°C 17% 4.0 mph E6.4 kmh E 6.0 mph9.7 kmh -338605.1 mb - 0.00 in0.0 mm 0.00 in0.0 mm
08:37 PM 77.7°F25.4°C 29.5°F-1.4°C 17% 4.9 mph E7.9 kmh E 2.0 mph3.2 kmh -338605.1 mb - 0.00 in0.0 mm 0.00 in0.0 mm
08:42 PM 77.5°F25.3°C 29.3°F-1.5°C 17% 4.0 mph E6.4 kmh E 4.9 mph7.9 kmh -338605.1 mb - 0.00 in0.0 mm 0.00 in0.0 mm
08:47 PM 77.4°F25.2°C 29.1°F-1.6°C 17% 2.9 mph E4.7 kmh E 2.9 mph4.7 kmh -338605.1 mb - 0.00 in0.0 mm 0.00 in0.0 mm
08:52 PM 77.0°F25.0°C 28.8°F-1.8°C 17% 2.9 mph E4.7 kmh E 2.9 mph4.7 kmh -338605.1 mb - 0.00 in0.0 mm 0.00 in0.0 mm
08:57 PM 76.6°F24.8°C 28.6°F-1.9°C 17% 2.9 mph E4.7 kmh E 2.9 mph4.7 kmh -338605.1 mb - 0.00 in0.0 mm 0.00 in0.0 mm
09:02 PM 76.5°F24.7°C 29.8°F-1.2°C 18% 4.0 mph E6.4 kmh E 2.9 mph4.7 kmh -338605.1 mb - 0.00 in0.0 mm 0.00 in0.0 mm
09:07 PM 75.9°F24.4°C 29.3°F-1.5°C 18% 2.9 mph E4.7 kmh E 2.0 mph3.2 kmh -338605.1 mb - 0.00 in0.0 mm 0.00 in0.0 mm
09:12 PM 75.4°F24.1°C 28.9°F-1.7°C 18% 2.0 mph E3.2 kmh E 2.0 mph3.2 kmh -338605.1 mb - 0.00 in0.0 mm 0.00 in0.0 mm
09:17 PM 74.8°F23.8°C 28.4°F-2.0°C 18% 2.0 mph E3.2 kmh E 0.9 mph1.4 kmh -338605.1 mb - 0.00 in0.0 mm 0.00 in0.0 mm
09:22 PM 74.5°F23.6°C 29.5°F-1.4°C 19% 2.0 mph E3.2 kmh E 2.0 mph3.2 kmh -338605.1 mb - 0.00 in0.0 mm 0.00 in0.0 mm
09:27 PM 73.9°F23.3°C 29.1°F-1.6°C 19% 2.9 mph E4.7 kmh E 2.0 mph3.2 kmh -338605.1 mb - 0.00 in0.0 mm 0.00 in0.0 mm
09:32 PM 73.6°F23.1°C 28.8°F-1.8°C 19% 2.0 mph E3.2 kmh E 2.9 mph4.7 kmh -338605.1 mb - 0.00 in0.0 mm 0.00 in0.0 mm
09:37 PM 73.2°F22.9°C 28.4°F-2.0°C 19% 2.0 mph E3.2 kmh E -- -338605.1 mb - 0.00 in0.0 mm 0.00 in0.0 mm
09:42 PM 73.0°F22.8°C 28.4°F-2.0°C 19% 0.9 mph E1.4 kmh E 2.0 mph3.2 kmh -338605.1 mb - 0.00 in0.0 mm 0.00 in0.0 mm
09:47 PM 72.7°F22.6°C 28.0°F-2.2°C 19% 0.9 mph E1.4 kmh E -- -338605.1 mb - 0.00 in0.0 mm 0.00 in0.0 mm
09:52 PM 72.5°F22.5°C 29.1°F-1.6°C 20% Calm Calm -- -338605.1 mb - 0.00 in0.0 mm 0.00 in0.0 mm
09:57 PM 72.3°F22.4°C 28.9°F-1.7°C 20% Calm Calm -- -338605.1 mb - 0.00 in0.0 mm 0.00 in0.0 mm
10:02 PM 72.1°F22.3°C 28.8°F-1.8°C 20% Calm Calm -- -338605.1 mb - 0.00 in0.0 mm 0.00 in0.0 mm
10:07 PM 72.0°F22.2°C 28.8°F-1.8°C 20% Calm Calm 0.9 mph1.4 kmh -338605.1 mb - 0.00 in0.0 mm 0.00 in0.0 mm
10:12 PM 71.8°F22.1°C 28.6°F-1.9°C 20% 0.9 mph E1.4 kmh E -- -338605.1 mb - 0.00 in0.0 mm 0.00 in0.0 mm
10:17 PM 71.4°F21.9°C 28.2°F-2.1°C 20% Calm Calm -- -338605.1 mb - 0.00 in0.0 mm 0.00 in0.0 mm
10:22 PM 71.2°F21.8°C 28.0°F-2.2°C 20% 0.9 mph E1.4 kmh E 2.0 mph3.2 kmh -338605.1 mb - 0.00 in0.0 mm 0.00 in0.0 mm
10:27 PM 71.2°F21.8°C 29.3°F-1.5°C 21% 2.9 mph E4.7 kmh E 4.9 mph7.9 kmh -338605.1 mb - 0.00 in0.0 mm 0.00 in0.0 mm
10:32 PM 71.1°F21.7°C 28.0°F-2.2°C 20% 2.9 mph E4.7 kmh E 2.0 mph3.2 kmh -338605.1 mb - 0.00 in0.0 mm 0.00 in0.0 mm
10:37 PM 70.9°F21.6°C 27.9°F-2.3°C 20% 2.0 mph E3.2 kmh E 2.0 mph3.2 kmh -338605.1 mb - 0.00 in0.0 mm 0.00 in0.0 mm
10:42 PM 70.5°F21.4°C 28.8°F-1.8°C 21% 2.0 mph E3.2 kmh E 2.0 mph3.2 kmh -338605.1 mb - 0.00 in0.0 mm 0.00 in0.0 mm
10:47 PM 70.3°F21.3°C 28.6°F-1.9°C 21% 2.0 mph E3.2 kmh E 2.9 mph4.7 kmh -338605.1 mb - 0.00 in0.0 mm 0.00 in0.0 mm
10:52 PM 70.3°F21.3°C 28.6°F-1.9°C 21% 2.9 mph E4.7 kmh E 2.0 mph3.2 kmh -338605.1 mb - 0.00 in0.0 mm 0.00 in0.0 mm
10:57 PM 70.2°F21.2°C 28.4°F-2.0°C 21% 2.9 mph E4.7 kmh E 2.9 mph4.7 kmh -338605.1 mb - 0.00 in0.0 mm 0.00 in0.0 mm
11:02 PM 70.2°F21.2°C 28.4°F-2.0°C 21% 2.0 mph E3.2 kmh E 2.9 mph4.7 kmh -338605.1 mb - 0.00 in0.0 mm 0.00 in0.0 mm
11:07 PM 70.0°F21.1°C 28.2°F-2.1°C 21% 2.9 mph E4.7 kmh E 2.0 mph3.2 kmh -338605.1 mb - 0.00 in0.0 mm 0.00 in0.0 mm
11:12 PM 70.0°F21.1°C 28.2°F-2.1°C 21% 2.9 mph E4.7 kmh E 2.0 mph3.2 kmh -338605.1 mb - 0.00 in0.0 mm 0.00 in0.0 mm
11:17 PM 69.8°F21.0°C 28.0°F-2.2°C 21% 2.0 mph E3.2 kmh E 2.9 mph4.7 kmh -338605.1 mb - 0.00 in0.0 mm 0.00 in0.0 mm
11:22 PM 69.6°F20.9°C 27.9°F-2.3°C 21% 2.0 mph E3.2 kmh E 0.9 mph1.4 kmh -338605.1 mb - 0.00 in0.0 mm 0.00 in0.0 mm
11:27 PM 69.4°F20.8°C 30.0°F-1.1°C 23% 2.0 mph E3.2 kmh E -- -338605.1 mb - 0.00 in0.0 mm 0.00 in0.0 mm
11:32 PM 68.7°F20.4°C 29.5°F-1.4°C 23% 2.0 mph NW3.2 kmh NW 4.0 mph6.4 kmh -338605.1 mb - 0.00 in0.0 mm 0.00 in0.0 mm
11:37 PM 67.8°F19.9°C 27.5°F-2.5°C 22% 4.9 mph WSW7.9 kmh WSW 8.1 mph13.0 kmh -338605.1 mb - 0.00 in0.0 mm 0.00 in0.0 mm
11:42 PM 68.5°F20.3°C 27.1°F-2.7°C 21% 6.9 mph WSW11.1 kmh WSW 6.0 mph9.7 kmh -338605.1 mb - 0.00 in0.0 mm 0.00 in0.0 mm
11:47 PM 68.9°F20.5°C 27.3°F-2.6°C 21% 8.1 mph WSW13.0 kmh WSW 10.1 mph16.3 kmh -338605.1 mb - 0.00 in0.0 mm 0.00 in0.0 mm
11:52 PM 69.6°F20.9°C 27.9°F-2.3°C 21% 8.9 mph WSW14.3 kmh WSW 8.1 mph13.0 kmh -338605.1 mb - 0.00 in0.0 mm 0.00 in0.0 mm
11:57 PM 70.0°F21.1°C 27.1°F-2.7°C 20% 8.9 mph SW14.3 kmh SW 4.0 mph6.4 kmh -338605.1 mb - 0.00 in0.0 mm 0.00 in0.0 mm